OTBD/DOH METAR and TAF weather

Enter ICAO airport designator
Station Type Date Time Source
OTBD METAR 2019/02/20 23:30 UTC NOAA

OTBD 202330Z AUTO 24004KT 220V280 CAVOK 15/07 Q1020 NOSIG


Station Type Date Time Source
OTBD Decoded METAR 2019/02/20 23:30 UTC NOAA

Doha International Airport, Qatar (OTBD) 25-15N 051-34E 10M
Feb 20, 2019 - 06:30 PM EST / 2019.02.20 2330 UTC
Wind: from the WSW (240 degrees) at 5 MPH (4 KT) (direction variable):0
Visibility: greater than 7 mile(s):0
Temperature: 59 F (15 C)
Dew Point: 44 F (7 C)
Relative Humidity: 58%
Pressure (altimeter): 30.12 in. Hg (1020 hPa)
ob: OTBD 202330Z AUTO 24004KT 220V280 CAVOK 15/07 Q1020 NOSIG
cycle: 23

Station Type Date Time Source
OTBD TAF 2019/02/20 18:06 UTC NOAA

TAF TAF OTBD 201701Z 2018/2124 33014KT CAVOK
TEMPO 2023/2104 26011KT
BECMG 2110/2112 05012KT


Example: see airport list